Time;durP1;ratioP1;P1;durP2;ratioP2;P2;SDS_P1;SDS_P2;PMS_P1;PMS_P2;Temp;Humidity;BMP_temperature;BMP_pressure;BME280_temperature;BME280_humidity;BME280_pressure;Samples;Min_cycle;Max_cycle;Signal;HPM_P1;HPM_P2
2023/05/03 00:01:12;;;;;;;2.65;2.40;;;;;;;;;;5052175;28;20477;-69
2023/05/03 00:03:38;;;;;;;4.57;2.38;;;;;;;;;;5051132;28;20035;-69
2023/05/03 00:06:11;;;;;;;2.70;2.30;;;;;;;;;;5052392;28;20033;-69
2023/05/03 00:08:38;;;;;;;2.83;2.50;;;;;;;;;;5052573;28;20029;-69
2023/05/03 00:11:04;;;;;;;2.60;2.40;;;;;;;;;;5052532;28;20050;-70
2023/05/03 00:13:30;;;;;;;4.78;2.58;;;;;;;;;;5052252;28;20035;-69
2023/05/03 00:15:57;;;;;;;4.32;2.65;;;;;;;;;;5052079;28;20031;-69
2023/05/03 00:18:23;;;;;;;4.60;2.88;;;;;;;;;;5052304;28;20017;-69
2023/05/03 00:20:50;;;;;;;5.70;2.60;;;;;;;;;;5052537;28;20021;-69
2023/05/03 00:23:16;;;;;;;5.57;2.95;;;;;;;;;;5052258;28;20389;-69
2023/05/03 00:25:43;;;;;;;4.15;2.80;;;;;;;;;;5052551;28;20025;-69
2023/05/03 00:28:09;;;;;;;4.90;2.75;;;;;;;;;;5052172;28;20024;-69
2023/05/03 00:30:36;;;;;;;4.60;3.00;;;;;;;;;;5051731;28;20041;-69
2023/05/03 00:33:02;;;;;;;3.83;3.25;;;;;;;;;;5052267;28;20045;-69
2023/05/03 00:35:28;;;;;;;4.15;3.13;;;;;;;;;;5052473;28;20021;-70
2023/05/03 00:37:54;;;;;;;5.40;2.97;;;;;;;;;;5052228;28;20025;-69
2023/05/03 00:40:21;;;;;;;3.63;3.10;;;;;;;;;;5052281;28;20394;-69
2023/05/03 00:42:47;;;;;;;4.93;2.80;;;;;;;;;;5051097;28;20047;-69
2023/05/03 00:45:13;;;;;;;3.20;2.90;;;;;;;;;;5051976;28;20027;-69
2023/05/03 00:47:40;;;;;;;5.00;2.70;;;;;;;;;;5051884;28;20496;-69
2023/05/03 00:50:08;;;;;;;4.65;2.88;;;;;;;;;;5052154;28;20028;-69
2023/05/03 00:52:35;;;;;;;4.90;3.20;;;;;;;;;;5051045;28;20029;-69
2023/05/03 00:55:01;;;;;;;3.92;3.13;;;;;;;;;;5052155;28;20036;-69
2023/05/03 00:57:28;;;;;;;3.88;3.15;;;;;;;;;;5051787;28;20201;-69
2023/05/03 00:59:56;;;;;;;5.53;3.28;;;;;;;;;;5051898;28;20021;-69
2023/05/03 01:02:23;;;;;;;4.28;3.38;;;;;;;;;;5051771;28;20390;-69
2023/05/03 01:04:50;;;;;;;3.63;3.25;;;;;;;;;;5053534;28;20025;-69
2023/05/03 01:07:31;;;;;;;4.43;2.80;;;;;;;;;;5055552;28;20017;-69
2023/05/03 01:10:07;;;;;;;4.25;3.35;;;;;;;;;;5055322;28;20025;-69
2023/05/03 01:12:37;;;;;;;6.22;3.78;;;;;;;;;;5054233;28;20039;-68
2023/05/03 01:15:09;;;;;;;8.82;3.60;;;;;;;;;;5055151;28;20017;-69
2023/05/03 01:17:38;;;;;;;5.65;3.50;;;;;;;;;;5055475;28;20035;-69
2023/05/03 01:20:10;;;;;;;5.55;3.45;;;;;;;;;;5055492;28;20029;-69
2023/05/03 01:22:37;;;;;;;4.68;3.10;;;;;;;;;;5055158;28;20043;-69
2023/05/03 01:25:06;;;;;;;5.10;2.88;;;;;;;;;;5055466;28;20021;-69
2023/05/03 01:27:33;;;;;;;4.35;3.50;;;;;;;;;;5054852;28;20169;-69
2023/05/03 01:29:59;;;;;;;4.18;3.47;;;;;;;;;;5054782;28;20048;-69
2023/05/03 01:32:40;;;;;;;4.00;3.60;;;;;;;;;;5054736;28;20508;-69
2023/05/03 01:35:11;;;;;;;6.82;3.58;;;;;;;;;;5055191;28;20037;-69
2023/05/03 01:37:37;;;;;;;6.38;3.63;;;;;;;;;;5055299;28;20039;-69
2023/05/03 01:40:06;;;;;;;4.53;3.80;;;;;;;;;;5054732;28;20033;-69
2023/05/03 01:42:34;;;;;;;6.25;3.60;;;;;;;;;;5054768;28;20017;-69
2023/05/03 01:45:02;;;;;;;5.05;3.75;;;;;;;;;;5054734;28;20025;-69
2023/05/03 01:47:29;;;;;;;6.00;3.90;;;;;;;;;;5054777;28;20029;-69
2023/05/03 01:49:55;;;;;;;5.22;4.50;;;;;;;;;;5055014;28;20025;-69
2023/05/03 01:52:22;;;;;;;6.28;4.32;;;;;;;;;;5054341;28;20025;-69
2023/05/03 01:54:48;;;;;;;6.07;3.97;;;;;;;;;;5053648;28;20037;-69
2023/05/03 01:57:15;;;;;;;4.88;3.80;;;;;;;;;;5054386;28;20021;-69
2023/05/03 01:59:41;;;;;;;5.10;3.83;;;;;;;;;;5054519;28;20381;-69
2023/05/03 02:02:07;;;;;;;5.60;4.05;;;;;;;;;;5054278;28;20029;-69
2023/05/03 02:04:34;;;;;;;6.80;4.13;;;;;;;;;;5054332;28;20099;-69
2023/05/03 02:07:00;;;;;;;6.13;3.90;;;;;;;;;;5054610;28;20027;-69
2023/05/03 02:09:27;;;;;;;5.50;3.35;;;;;;;;;;5054367;28;20044;-69
2023/05/03 02:11:53;;;;;;;4.70;3.80;;;;;;;;;;5053799;28;20051;-69
2023/05/03 02:14:19;;;;;;;5.32;3.60;;;;;;;;;;5054215;28;20033;-69
2023/05/03 02:16:46;;;;;;;5.82;4.13;;;;;;;;;;5053622;28;20021;-69
2023/05/03 02:19:12;;;;;;;8.60;3.67;;;;;;;;;;5052798;28;20051;-69
2023/05/03 02:21:38;;;;;;;4.90;4.13;;;;;;;;;;5054101;28;20021;-69
2023/05/03 02:24:05;;;;;;;5.38;3.67;;;;;;;;;;5053948;28;20021;-69
2023/05/03 02:26:31;;;;;;;4.80;4.05;;;;;;;;;;5053807;28;20027;-69
2023/05/03 02:28:57;;;;;;;8.07;4.35;;;;;;;;;;5053770;28;20039;-69
2023/05/03 02:31:25;;;;;;;6.65;4.25;;;;;;;;;;5053815;28;20029;-69
2023/05/03 02:33:51;;;;;;;6.03;4.45;;;;;;;;;;5053708;28;20033;-70
2023/05/03 02:36:18;;;;;;;5.13;4.40;;;;;;;;;;5053854;28;20021;-69
2023/05/03 02:38:44;;;;;;;6.53;4.13;;;;;;;;;;5053704;28;20501;-69
2023/05/03 02:41:10;;;;;;;7.30;4.57;;;;;;;;;;5053810;28;20031;-69
2023/05/03 02:43:37;;;;;;;5.15;4.20;;;;;;;;;;5053527;28;20040;-69
2023/05/03 02:46:03;;;;;;;5.00;4.15;;;;;;;;;;5053575;28;20025;-70
2023/05/03 02:48:29;;;;;;;4.80;4.20;;;;;;;;;;5053637;28;20024;-69
2023/05/03 02:50:56;;;;;;;5.22;4.70;;;;;;;;;;5053726;28;20028;-69
2023/05/03 02:53:22;;;;;;;7.13;4.40;;;;;;;;;;5053383;28;20033;-69
2023/05/03 02:55:49;;;;;;;6.82;4.97;;;;;;;;;;5053590;28;20043;-69
2023/05/03 02:58:15;;;;;;;6.75;4.82;;;;;;;;;;5053591;28;20017;-69
2023/05/03 03:00:42;;;;;;;6.65;4.32;;;;;;;;;;5053679;28;20141;-69
2023/05/03 03:03:08;;;;;;;7.38;5.22;;;;;;;;;;5053318;28;20035;-69
2023/05/03 03:05:34;;;;;;;8.45;5.10;;;;;;;;;;5053111;28;20027;-69
2023/05/03 03:08:01;;;;;;;6.78;4.43;;;;;;;;;;5053249;28;20037;-69
2023/05/03 03:10:27;;;;;;;6.93;4.45;;;;;;;;;;5052988;28;20017;-69
2023/05/03 03:12:54;;;;;;;6.68;4.57;;;;;;;;;;5051537;28;20063;-69
2023/05/03 03:15:20;;;;;;;7.30;4.25;;;;;;;;;;5053285;28;20032;-69
2023/05/03 03:17:47;;;;;;;5.05;4.18;;;;;;;;;;5053268;28;20093;-69
2023/05/03 03:20:14;;;;;;;6.28;4.28;;;;;;;;;;5053033;28;20021;-70
2023/05/03 03:22:42;;;;;;;8.02;5.03;;;;;;;;;;5053200;28;20025;-69
2023/05/03 03:25:09;;;;;;;8.35;4.20;;;;;;;;;;5053046;28;20021;-69
2023/05/03 03:27:35;;;;;;;5.53;4.55;;;;;;;;;;5052372;28;20029;-70
2023/05/03 03:30:02;;;;;;;6.40;4.72;;;;;;;;;;5052510;28;20037;-69
2023/05/03 03:32:29;;;;;;;5.75;4.55;;;;;;;;;;5052928;28;20489;-69
2023/05/03 03:34:55;;;;;;;8.15;5.40;;;;;;;;;;5052606;28;20021;-69
2023/05/03 03:37:22;;;;;;;7.32;4.68;;;;;;;;;;5052786;28;20032;-69
2023/05/03 03:39:48;;;;;;;8.65;5.10;;;;;;;;;;5052483;28;20017;-69
2023/05/03 03:42:14;;;;;;;6.97;4.85;;;;;;;;;;5051317;28;20082;-69
2023/05/03 03:44:41;;;;;;;6.70;4.85;;;;;;;;;;5052442;28;20021;-70
2023/05/03 03:47:07;;;;;;;7.55;5.40;;;;;;;;;;5052750;28;20029;-69
2023/05/03 03:49:33;;;;;;;7.63;5.47;;;;;;;;;;5052774;28;20036;-70
2023/05/03 03:52:00;;;;;;;7.35;5.38;;;;;;;;;;5052322;28;20013;-69
2023/05/03 03:54:26;;;;;;;6.32;5.20;;;;;;;;;;5052630;28;20029;-69
2023/05/03 03:56:53;;;;;;;7.03;5.25;;;;;;;;;;5052405;28;20555;-70
2023/05/03 03:59:19;;;;;;;6.88;5.13;;;;;;;;;;5052287;28;20497;-69
2023/05/03 04:01:45;;;;;;;8.77;5.07;;;;;;;;;;5052587;28;20070;-69
2023/05/03 04:04:12;;;;;;;8.20;4.85;;;;;;;;;;5052910;28;20033;-69
2023/05/03 04:06:38;;;;;;;5.85;4.85;;;;;;;;;;5052265;28;20021;-69
2023/05/03 04:09:05;;;;;;;8.10;4.72;;;;;;;;;;5052580;28;20025;-69
2023/05/03 04:11:31;;;;;;;8.00;4.85;;;;;;;;;;5051984;28;20033;-69
2023/05/03 04:13:57;;;;;;;8.18;5.47;;;;;;;;;;5052266;28;20448;-69
2023/05/03 04:16:23;;;;;;;9.30;5.45;;;;;;;;;;5052701;28;20029;-69
2023/05/03 04:18:50;;;;;;;7.63;5.38;;;;;;;;;;5052552;28;20021;-70
2023/05/03 04:21:18;;;;;;;7.78;5.25;;;;;;;;;;5051790;28;20500;-69
2023/05/03 04:23:45;;;;;;;7.72;5.53;;;;;;;;;;5052194;28;20037;-69
2023/05/03 04:26:11;;;;;;;5.70;4.80;;;;;;;;;;5052423;28;20021;-69
2023/05/03 04:28:38;;;;;;;11.48;4.63;;;;;;;;;;5052119;28;20509;-69
2023/05/03 04:31:04;;;;;;;5.88;4.50;;;;;;;;;;5050880;28;20037;-69
2023/05/03 04:33:31;;;;;;;7.95;4.72;;;;;;;;;;5051771;28;20421;-69
2023/05/03 04:35:57;;;;;;;7.10;5.00;;;;;;;;;;5051874;28;20028;-69
2023/05/03 04:38:24;;;;;;;8.05;4.88;;;;;;;;;;5052344;28;20025;-68
2023/05/03 04:40:50;;;;;;;6.40;5.18;;;;;;;;;;5054298;28;20025;-69
2023/05/03 04:43:17;;;;;;;8.52;5.03;;;;;;;;;;5056106;28;20212;-69
2023/05/03 04:45:43;;;;;;;6.22;4.70;;;;;;;;;;5056089;28;20021;-69
2023/05/03 04:48:09;;;;;;;6.38;4.95;;;;;;;;;;5056038;28;20029;-69
2023/05/03 04:50:36;;;;;;;8.25;4.80;;;;;;;;;;5055897;28;20027;-69
2023/05/03 04:53:02;;;;;;;13.90;7.53;;;;;;;;;;5055542;28;20474;-69
2023/05/03 04:55:29;;;;;;;10.88;7.30;;;;;;;;;;5055806;28;20379;-69
2023/05/03 04:57:55;;;;;;;10.32;6.97;;;;;;;;;;5055677;28;20035;-70
2023/05/03 05:00:22;;;;;;;9.95;7.45;;;;;;;;;;5055575;28;20478;-70
2023/05/03 05:02:48;;;;;;;17.85;8.68;;;;;;;;;;5055630;28;20025;-69
2023/05/03 05:05:15;;;;;;;14.93;10.18;;;;;;;;;;5055496;28;20025;-69
2023/05/03 05:07:42;;;;;;;9.82;6.60;;;;;;;;;;5055503;28;20033;-70
2023/05/03 05:10:08;;;;;;;10.45;5.97;;;;;;;;;;5055639;28;20025;-69
2023/05/03 05:12:35;;;;;;;9.13;5.50;;;;;;;;;;5055481;28;20037;-69
2023/05/03 05:15:01;;;;;;;7.32;5.53;;;;;;;;;;5055540;28;20053;-69
2023/05/03 05:17:28;;;;;;;7.97;5.57;;;;;;;;;;5055391;28;20025;-69
2023/05/03 05:19:54;;;;;;;8.07;5.80;;;;;;;;;;5055431;28;20474;-69
2023/05/03 05:22:20;;;;;;;9.32;5.43;;;;;;;;;;5055364;28;20025;-70
2023/05/03 05:24:47;;;;;;;9.57;6.03;;;;;;;;;;5055512;28;20085;-69
2023/05/03 05:27:13;;;;;;;8.68;5.80;;;;;;;;;;5055054;28;20020;-69
2023/05/03 05:29:39;;;;;;;6.95;5.57;;;;;;;;;;5055040;28;20041;-69
2023/05/03 05:32:06;;;;;;;9.75;5.85;;;;;;;;;;5054845;28;20029;-70
2023/05/03 05:34:32;;;;;;;10.98;5.75;;;;;;;;;;5054787;28;20037;-70
2023/05/03 05:36:59;;;;;;;9.50;5.50;;;;;;;;;;5055098;28;20017;-70
2023/05/03 05:39:25;;;;;;;8.38;5.63;;;;;;;;;;5055136;28;20025;-69
2023/05/03 05:41:52;;;;;;;7.28;5.30;;;;;;;;;;5055094;28;20034;-69
2023/05/03 05:44:18;;;;;;;8.80;5.40;;;;;;;;;;5055053;28;20017;-69
2023/05/03 05:46:45;;;;;;;11.75;5.53;;;;;;;;;;5055091;28;20031;-69
2023/05/03 05:49:12;;;;;;;9.18;5.15;;;;;;;;;;5054528;28;20482;-70
2023/05/03 05:51:38;;;;;;;7.13;5.43;;;;;;;;;;5053713;28;20396;-69
2023/05/03 05:54:04;;;;;;;9.07;5.78;;;;;;;;;;5054597;28;20037;-70
2023/05/03 05:56:31;;;;;;;7.50;5.68;;;;;;;;;;5054861;28;20017;-69
2023/05/03 05:58:59;;;;;;;8.20;4.68;;;;;;;;;;5054346;28;20039;-70
2023/05/03 06:01:25;;;;;;;8.80;4.40;;;;;;;;;;5054550;28;20029;-70
2023/05/03 06:03:52;;;;;;;6.57;4.15;;;;;;;;;;5054327;28;20029;-69
2023/05/03 06:06:18;;;;;;;7.78;3.70;;;;;;;;;;5054228;28;20432;-69
2023/05/03 06:08:44;;;;;;;5.97;3.83;;;;;;;;;;5036639;28;20032;-70
2023/05/03 06:11:13;;;;;;;4.35;3.60;;;;;;;;;;5054799;28;20066;-69
2023/05/03 06:13:40;;;;;;;5.63;3.65;;;;;;;;;;5054119;28;20039;-69
2023/05/03 06:16:07;;;;;;;5.97;2.95;;;;;;;;;;5054238;28;20039;-69
2023/05/03 06:18:33;;;;;;;6.07;3.60;;;;;;;;;;5054059;28;20070;-69
2023/05/03 06:20:59;;;;;;;7.90;3.17;;;;;;;;;;5054359;28;20122;-70
2023/05/03 06:23:26;;;;;;;4.75;3.17;;;;;;;;;;5052076;28;20036;-69
2023/05/03 06:25:53;;;;;;;6.68;3.17;;;;;;;;;;5052687;28;20025;-70
2023/05/03 06:28:19;;;;;;;4.57;3.30;;;;;;;;;;5052731;28;20033;-69
2023/05/03 06:30:49;;;;;;;5.78;3.53;;;;;;;;;;5052665;28;20409;-70
2023/05/03 06:33:15;;;;;;;6.45;3.53;;;;;;;;;;5052607;28;20040;-69
2023/05/03 06:35:42;;;;;;;7.45;3.83;;;;;;;;;;5052655;28;20021;-69
2023/05/03 06:38:08;;;;;;;9.90;3.38;;;;;;;;;;5052523;28;20402;-69
2023/05/03 06:40:35;;;;;;;6.90;3.33;;;;;;;;;;5052880;28;20031;-70
2023/05/03 06:43:01;;;;;;;6.20;3.38;;;;;;;;;;5052470;28;20416;-70
2023/05/03 06:45:28;;;;;;;5.35;3.15;;;;;;;;;;5052715;28;20033;-70
2023/05/03 06:47:54;;;;;;;5.85;3.28;;;;;;;;;;5052233;28;20009;-70
2023/05/03 06:50:23;;;;;;;3.47;3.17;;;;;;;;;;5052378;28;20029;-70
2023/05/03 06:52:49;;;;;;;5.15;2.88;;;;;;;;;;5052058;28;20031;-70
2023/05/03 06:55:16;;;;;;;4.47;3.10;;;;;;;;;;5052190;28;20481;-70
2023/05/03 06:57:43;;;;;;;4.18;2.90;;;;;;;;;;5052360;28;20432;-70
2023/05/03 07:00:10;;;;;;;7.00;3.00;;;;;;;;;;5052123;28;20021;-70
2023/05/03 07:02:36;;;;;;;5.40;3.03;;;;;;;;;;5051753;28;20027;-70
2023/05/03 07:05:02;;;;;;;4.47;2.63;;;;;;;;;;5052416;28;20031;-71
2023/05/03 07:07:29;;;;;;;4.20;2.65;;;;;;;;;;5052447;28;20021;-70
2023/05/03 07:09:55;;;;;;;4.13;2.90;;;;;;;;;;5052790;28;20035;-69
2023/05/03 07:12:26;;;;;;;3.58;3.05;;;;;;;;;;5051971;28;20395;-70
2023/05/03 07:14:53;;;;;;;3.60;2.92;;;;;;;;;;5051915;28;20029;-69
2023/05/03 07:17:20;;;;;;;3.40;2.58;;;;;;;;;;5051900;28;20032;-68
2023/05/03 07:19:50;;;;;;;3.00;2.50;;;;;;;;;;5051945;28;20478;-69
2023/05/03 07:22:16;;;;;;;3.20;2.40;;;;;;;;;;5051707;28;20497;-69
2023/05/03 07:24:43;;;;;;;3.88;2.55;;;;;;;;;;5052093;28;20035;-69
2023/05/03 07:27:09;;;;;;;9.20;2.95;;;;;;;;;;5051785;28;20067;-69
2023/05/03 07:29:35;;;;;;;2.90;2.28;;;;;;;;;;5052437;28;20033;-69
2023/05/03 07:32:02;;;;;;;7.28;3.00;;;;;;;;;;5052518;28;20021;-69
2023/05/03 07:34:29;;;;;;;7.50;2.50;;;;;;;;;;5052806;28;20039;-69
2023/05/03 07:36:55;;;;;;;7.82;2.70;;;;;;;;;;5052948;28;20020;-69
2023/05/03 07:39:22;;;;;;;7.05;2.88;;;;;;;;;;5051752;28;20033;-69
2023/05/03 07:41:48;;;;;;;5.07;2.10;;;;;;;;;;5052852;28;20497;-70
2023/05/03 07:44:14;;;;;;;2.60;2.25;;;;;;;;;;5052332;28;20405;-70
2023/05/03 07:46:41;;;;;;;3.55;2.13;;;;;;;;;;5052722;28;20021;-69
2023/05/03 07:49:07;;;;;;;3.08;2.08;;;;;;;;;;5052670;28;20070;-69
2023/05/03 07:51:37;;;;;;;2.28;1.85;;;;;;;;;;5052590;28;20082;-70
2023/05/03 07:54:04;;;;;;;2.60;2.30;;;;;;;;;;5052524;28;20029;-70
2023/05/03 07:56:30;;;;;;;6.15;2.25;;;;;;;;;;5052478;28;20429;-69
2023/05/03 07:58:57;;;;;;;2.20;2.00;;;;;;;;;;5052311;28;20021;-70
2023/05/03 08:01:23;;;;;;;3.03;1.98;;;;;;;;;;5052520;28;20021;-69
2023/05/03 08:03:50;;;;;;;3.28;1.95;;;;;;;;;;5052620;28;20032;-70
2023/05/03 08:06:16;;;;;;;2.33;2.13;;;;;;;;;;5051294;28;20028;-70
2023/05/03 08:08:43;;;;;;;4.20;1.90;;;;;;;;;;5052545;28;20039;-70
2023/05/03 08:11:10;;;;;;;3.83;1.92;;;;;;;;;;5052366;28;20025;-70
2023/05/03 08:13:36;;;;;;;2.13;1.90;;;;;;;;;;5051888;28;20043;-70
2023/05/03 08:16:03;;;;;;;3.38;1.80;;;;;;;;;;5056336;28;20013;-70
2023/05/03 08:18:29;;;;;;;4.43;1.90;;;;;;;;;;5056550;28;20025;-70
2023/05/03 08:20:57;;;;;;;4.80;1.90;;;;;;;;;;5056425;28;20482;-70
2023/05/03 08:23:24;;;;;;;2.05;1.85;;;;;;;;;;5056216;28;20025;-70
2023/05/03 08:25:51;;;;;;;4.53;2.00;;;;;;;;;;5056373;28;20363;-70
2023/05/03 08:28:17;;;;;;;2.13;1.67;;;;;;;;;;5055989;28;20035;-70
2023/05/03 08:30:44;;;;;;;2.10;1.90;;;;;;;;;;5056336;28;20039;-70
2023/05/03 08:33:10;;;;;;;2.25;1.90;;;;;;;;;;5056362;28;20528;-70
2023/05/03 08:35:37;;;;;;;2.22;1.80;;;;;;;;;;5056204;28;20025;-70
2023/05/03 08:38:04;;;;;;;3.35;2.00;;;;;;;;;;5056307;28;20043;-70
2023/05/03 08:40:35;;;;;;;1.73;1.63;;;;;;;;;;5056515;28;20017;-69
2023/05/03 08:43:07;;;;;;;2.53;1.80;;;;;;;;;;5055781;28;20139;-69
2023/05/03 08:45:33;;;;;;;2.97;1.88;;;;;;;;;;5055820;28;20027;-70
2023/05/03 08:48:03;;;;;;;3.83;2.00;;;;;;;;;;5055901;28;20483;-70
2023/05/03 08:50:29;;;;;;;3.10;1.92;;;;;;;;;;5055885;28;20040;-70
2023/05/03 08:52:56;;;;;;;4.72;1.80;;;;;;;;;;5054652;28;20041;-70
2023/05/03 08:55:22;;;;;;;2.05;1.85;;;;;;;;;;5056102;28;20021;-69
2023/05/03 08:57:49;;;;;;;2.35;1.50;;;;;;;;;;5055430;28;20547;-69
2023/05/03 09:00:18;;;;;;;2.08;1.63;;;;;;;;;;5055605;28;20383;-70
2023/05/03 09:02:44;;;;;;;2.05;1.80;;;;;;;;;;5055490;28;20033;-69
2023/05/03 09:05:14;;;;;;;4.10;1.80;;;;;;;;;;5055669;28;20059;-70
2023/05/03 09:08:00;;;;;;;1.83;1.73;;;;;;;;;;5055555;28;20021;-70
2023/05/03 09:10:26;;;;;;;4.13;1.88;;;;;;;;;;5055952;28;20082;-70
2023/05/03 09:12:58;;;;;;;4.10;1.70;;;;;;;;;;5055299;28;20404;-70
2023/05/03 09:15:25;;;;;;;4.32;1.63;;;;;;;;;;5055725;28;20021;-70
2023/05/03 09:18:07;;;;;;;1.65;1.40;;;;;;;;;;5055321;28;20502;-70
2023/05/03 09:20:50;;;;;;;1.50;1.40;;;;;;;;;;5055059;28;20473;-70
2023/05/03 09:23:27;;;;;;;1.90;1.40;;;;;;;;;;5055406;28;20055;-70
2023/05/03 09:25:54;;;;;;;1.95;1.55;;;;;;;;;;5054821;28;20029;-70
2023/05/03 09:28:20;;;;;;;1.98;1.50;;;;;;;;;;5055156;28;20029;-70
2023/05/03 09:30:48;;;;;;;1.98;1.60;;;;;;;;;;5055090;28;20090;-70
2023/05/03 09:33:19;;;;;;;1.83;1.48;;;;;;;;;;5055210;28;20021;-70
2023/05/03 09:35:57;;;;;;;1.52;1.40;;;;;;;;;;5054928;28;20485;-70
2023/05/03 09:38:27;;;;;;;1.85;1.50;;;;;;;;;;5055458;28;20031;-70
2023/05/03 09:40:53;;;;;;;5.32;1.90;;;;;;;;;;5055107;28;20028;-70
2023/05/03 09:43:19;;;;;;;3.33;1.80;;;;;;;;;;5054835;28;20375;-70
2023/05/03 09:45:46;;;;;;;5.18;1.65;;;;;;;;;;5054752;28;20024;-70
2023/05/03 09:48:12;;;;;;;1.90;1.70;;;;;;;;;;5054890;28;20037;-70
2023/05/03 09:50:39;;;;;;;2.42;1.60;;;;;;;;;;5055016;28;20021;-70
2023/05/03 09:53:07;;;;;;;1.85;1.60;;;;;;;;;;5054703;28;20031;-70
2023/05/03 09:55:34;;;;;;;2.95;1.48;;;;;;;;;;5054557;28;20055;-70
2023/05/03 09:58:05;;;;;;;1.58;1.48;;;;;;;;;;5054534;28;20033;-70
2023/05/03 10:00:35;;;;;;;2.75;1.40;;;;;;;;;;5054340;28;20017;-70
2023/05/03 10:03:06;;;;;;;1.35;1.25;;;;;;;;;;5054449;28;20025;-69
2023/05/03 10:05:33;;;;;;;2.95;1.60;;;;;;;;;;5054739;28;20043;-70
2023/05/03 10:08:02;;;;;;;1.58;1.48;;;;;;;;;;5054321;28;20027;-70
2023/05/03 10:10:30;;;;;;;2.53;1.75;;;;;;;;;;5054543;28;20484;-70
2023/05/03 10:12:58;;;;;;;1.38;1.30;;;;;;;;;;5054389;28;20039;-70
2023/05/03 10:15:26;;;;;;;2.20;1.50;;;;;;;;;;5053990;28;20024;-70
2023/05/03 10:17:53;;;;;;;2.55;1.42;;;;;;;;;;5054327;28;20040;-70
2023/05/03 10:20:35;;;;;;;3.85;1.45;;;;;;;;;;5054229;28;20047;-70
2023/05/03 10:23:11;;;;;;;1.73;1.20;;;;;;;;;;5054224;28;20049;-70
2023/05/03 10:25:38;;;;;;;1.60;1.00;;;;;;;;;;5053876;28;20020;-70
2023/05/03 10:28:06;;;;;;;2.08;1.35;;;;;;;;;;5054291;28;20025;-71
2023/05/03 10:30:36;;;;;;;1.55;1.40;;;;;;;;;;5052890;28;20047;-71
2023/05/03 10:33:12;;;;;;;2.67;1.23;;;;;;;;;;5053953;28;20029;-71
2023/05/03 10:35:43;;;;;;;1.25;0.90;;;;;;;;;;5053821;28;20500;-70
2023/05/03 10:38:22;;;;;;;1.05;1.05;;;;;;;;;;5053465;28;20025;-70
2023/05/03 10:40:49;;;;;;;1.40;1.30;;;;;;;;;;5054047;28;20021;-70
2023/05/03 10:43:30;;;;;;;1.50;1.10;;;;;;;;;;5053740;28;20490;-70
2023/05/03 10:45:57;;;;;;;1.13;1.00;;;;;;;;;;5053922;28;20134;-70
2023/05/03 10:48:24;;;;;;;1.90;1.10;;;;;;;;;;5053604;28;20021;-70
2023/05/03 10:50:51;;;;;;;3.03;1.00;;;;;;;;;;5052735;28;20024;-70
2023/05/03 10:53:36;;;;;;;1.25;1.00;;;;;;;;;;5053547;28;20025;-70
2023/05/03 10:56:07;;;;;;;2.85;1.08;;;;;;;;;;5053577;28;20027;-70
2023/05/03 10:58:36;;;;;;;1.98;1.20;;;;;;;;;;5053829;28;20025;-70
2023/05/03 11:01:03;;;;;;;0.93;0.90;;;;;;;;;;5053342;28;20017;-69
2023/05/03 11:03:29;;;;;;;1.90;1.10;;;;;;;;;;5053290;28;20039;-69
2023/05/03 11:05:56;;;;;;;1.70;1.15;;;;;;;;;;5053465;28;20070;-70
2023/05/03 11:08:24;;;;;;;0.85;0.85;;;;;;;;;;5053177;28;20043;-70
2023/05/03 11:10:57;;;;;;;2.47;1.10;;;;;;;;;;5053224;28;20017;-69
2023/05/03 11:13:24;;;;;;;1.75;0.95;;;;;;;;;;5053322;28;20025;-70
2023/05/03 11:15:51;;;;;;;2.40;1.00;;;;;;;;;;5053462;28;20020;-70
2023/05/03 11:18:18;;;;;;;4.03;1.30;;;;;;;;;;5053260;28;20418;-70
2023/05/03 11:20:44;;;;;;;1.15;1.05;;;;;;;;;;5053108;28;20023;-70
2023/05/03 11:23:10;;;;;;;1.20;1.10;;;;;;;;;;5052857;28;20082;-69
2023/05/03 11:25:37;;;;;;;1.90;1.00;;;;;;;;;;5052940;28;20029;-70
2023/05/03 11:28:04;;;;;;;2.03;1.10;;;;;;;;;;5052947;28;20359;-70
2023/05/03 11:30:32;;;;;;;1.70;0.88;;;;;;;;;;5051673;28;20449;-70
2023/05/03 11:32:59;;;;;;;3.58;0.80;;;;;;;;;;5053171;28;20033;-69
2023/05/03 11:35:25;;;;;;;4.00;1.23;;;;;;;;;;5052599;28;20029;-69
2023/05/03 11:37:55;;;;;;;1.17;1.05;;;;;;;;;;5052471;28;20490;-69
2023/05/03 11:40:22;;;;;;;1.30;1.13;;;;;;;;;;5052746;28;20478;-70
2023/05/03 11:42:52;;;;;;;1.30;1.20;;;;;;;;;;5052463;28;20436;-70
2023/05/03 11:45:18;;;;;;;;;;;;;;;;;;5053307;28;20039;-70
2023/05/03 11:47:45;;;;;;;3.65;1.20;;;;;;;;;;5052504;28;20292;-69
2023/05/03 11:50:11;;;;;;;1.33;1.20;;;;;;;;;;5051474;28;20021;-70
2023/05/03 11:52:38;;;;;;;3.95;1.30;;;;;;;;;;5052292;28;20028;-70
2023/05/03 11:55:06;;;;;;;1.55;1.13;;;;;;;;;;5052472;28;20025;-69
2023/05/03 11:57:33;;;;;;;4.25;1.40;;;;;;;;;;5052674;28;20029;-70
2023/05/03 12:00:13;;;;;;;2.13;1.50;;;;;;;;;;5052357;28;20025;-70
2023/05/03 12:02:40;;;;;;;2.20;1.25;;;;;;;;;;5052455;28;20020;-70
2023/05/03 12:05:08;;;;;;;3.55;1.25;;;;;;;;;;5052692;28;20021;-70
2023/05/03 12:07:36;;;;;;;2.35;1.13;;;;;;;;;;5052164;28;20025;-70
2023/05/03 12:10:14;;;;;;;2.72;1.08;;;;;;;;;;5052633;28;20036;-70
2023/05/03 12:12:41;;;;;;;2.60;1.50;;;;;;;;;;5052293;28;20363;-70
2023/05/03 12:15:08;;;;;;;2.75;1.20;;;;;;;;;;5051753;28;20021;-70
2023/05/03 12:17:35;;;;;;;3.15;1.20;;;;;;;;;;5052369;28;20023;-70
2023/05/03 12:20:18;;;;;;;2.50;1.30;;;;;;;;;;5052099;28;20025;-70
2023/05/03 12:22:47;;;;;;;4.97;1.58;;;;;;;;;;5052119;28;20506;-70
2023/05/03 12:25:14;;;;;;;1.80;1.20;;;;;;;;;;5052505;28;20029;-70
2023/05/03 12:27:40;;;;;;;2.72;1.17;;;;;;;;;;5052642;28;20051;-70
2023/05/03 12:30:09;;;;;;;3.78;1.00;;;;;;;;;;5052118;28;20049;-70
2023/05/03 12:32:36;;;;;;;1.23;1.10;;;;;;;;;;5052182;28;20033;-70
2023/05/03 12:35:02;;;;;;;1.80;1.13;;;;;;;;;;5052224;28;20035;-70
2023/05/03 12:37:29;;;;;;;1.27;1.10;;;;;;;;;;5052206;28;20044;-69
2023/05/03 12:39:55;;;;;;;1.50;1.30;;;;;;;;;;5052307;28;20025;-69
2023/05/03 12:42:22;;;;;;;2.45;1.20;;;;;;;;;;5052514;28;20500;-69
2023/05/03 12:44:48;;;;;;;4.10;1.52;;;;;;;;;;5052035;28;20039;-70
2023/05/03 12:47:15;;;;;;;2.40;2.10;;;;;;;;;;5052198;28;20021;-70
2023/05/03 12:49:41;;;;;;;2.42;1.33;;;;;;;;;;5052052;28;20023;-70
2023/05/03 12:52:07;;;;;;;5.30;1.30;;;;;;;;;;5052241;28;20020;-70
2023/05/03 12:54:34;;;;;;;3.75;1.20;;;;;;;;;;5051803;28;20027;-69
2023/05/03 12:57:02;;;;;;;2.53;1.20;;;;;;;;;;5050989;28;20027;-70
2023/05/03 12:59:29;;;;;;;3.28;1.40;;;;;;;;;;5051851;28;20033;-69
2023/05/03 13:01:56;;;;;;;2.58;1.30;;;;;;;;;;5055138;28;20021;-69
2023/05/03 13:04:22;;;;;;;2.35;1.40;;;;;;;;;;5055379;28;20367;-70
2023/05/03 13:06:49;;;;;;;1.98;1.20;;;;;;;;;;5055680;28;20393;-69
2023/05/03 13:09:16;;;;;;;2.40;1.40;;;;;;;;;;5055725;28;20025;-70
2023/05/03 13:11:42;;;;;;;1.55;1.10;;;;;;;;;;5055469;28;20025;-69
2023/05/03 13:14:12;;;;;;;1.20;1.10;;;;;;;;;;5055270;28;20039;-69
2023/05/03 13:16:38;;;;;;;2.80;1.60;;;;;;;;;;5055364;28;20498;-71
2023/05/03 13:19:05;;;;;;;1.95;1.20;;;;;;;;;;5055340;28;20039;-69
2023/05/03 13:21:31;;;;;;;4.72;1.20;;;;;;;;;;5055418;28;20033;-71
2023/05/03 13:23:57;;;;;;;1.67;1.10;;;;;;;;;;5055197;28;20040;-71
2023/05/03 13:26:24;;;;;;;2.72;1.30;;;;;;;;;;5055354;28;20478;-71
2023/05/03 13:28:50;;;;;;;2.50;1.08;;;;;;;;;;5055555;28;20028;-71
2023/05/03 13:31:17;;;;;;;3.22;1.20;;;;;;;;;;5055018;28;20414;-71
2023/05/03 13:33:44;;;;;;;2.75;1.38;;;;;;;;;;5054739;28;20035;-71
2023/05/03 13:36:10;;;;;;;1.38;1.20;;;;;;;;;;5053583;28;20478;-71
2023/05/03 13:38:37;;;;;;;1.98;1.30;;;;;;;;;;5055335;28;20054;-71
2023/05/03 13:41:07;;;;;;;2.65;1.40;;;;;;;;;;5054030;28;20025;-71
2023/05/03 13:43:34;;;;;;;1.67;1.30;;;;;;;;;;5054766;28;20028;-71
2023/05/03 13:46:01;;;;;;;4.20;1.00;;;;;;;;;;5055115;28;20025;-71
2023/05/03 13:48:27;;;;;;;7.15;2.58;;;;;;;;;;5054822;28;20021;-70
2023/05/03 13:50:54;;;;;;;4.18;1.83;;;;;;;;;;5054542;28;20086;-71
2023/05/03 13:53:20;;;;;;;2.33;1.25;;;;;;;;;;5054858;28;20028;-71
2023/05/03 13:55:46;;;;;;;1.38;1.20;;;;;;;;;;5054695;28;20024;-70
2023/05/03 13:58:13;;;;;;;1.73;1.20;;;;;;;;;;5054926;28;20039;-71
2023/05/03 14:00:39;;;;;;;2.08;1.23;;;;;;;;;;5054504;28;20017;-70
2023/05/03 14:03:06;;;;;;;4.03;1.65;;;;;;;;;;5054352;28;20035;-70
2023/05/03 14:05:32;;;;;;;1.98;1.52;;;;;;;;;;5054416;28;20037;-70
2023/05/03 14:07:58;;;;;;;1.75;1.20;;;;;;;;;;5054714;28;20028;-70
2023/05/03 14:10:25;;;;;;;3.00;1.85;;;;;;;;;;5054543;28;20027;-70
2023/05/03 14:12:51;;;;;;;1.42;1.20;;;;;;;;;;5053888;28;20118;-71
2023/05/03 14:15:18;;;;;;;4.80;1.42;;;;;;;;;;5053380;28;20070;-70
2023/05/03 14:17:47;;;;;;;2.92;1.30;;;;;;;;;;5054142;28;20401;-71
2023/05/03 14:20:16;;;;;;;1.35;1.25;;;;;;;;;;5054103;28;20050;-69
2023/05/03 14:22:43;;;;;;;2.47;0.90;;;;;;;;;;5054033;28;20025;-70
2023/05/03 14:25:09;;;;;;;2.25;0.95;;;;;;;;;;5054176;28;20029;-70
2023/05/03 14:27:35;;;;;;;1.20;1.10;;;;;;;;;;5054466;28;20024;-71
2023/05/03 14:30:02;;;;;;;8.23;1.90;;;;;;;;;;5054162;28;20494;-70
2023/05/03 14:32:29;;;;;;;3.38;1.08;;;;;;;;;;5054037;28;20035;-70
2023/05/03 14:34:55;;;;;;;11.48;1.85;;;;;;;;;;5054165;28;20025;-70
2023/05/03 14:37:22;;;;;;;10.77;3.03;;;;;;;;;;5054173;28;20017;-70
2023/05/03 14:39:48;;;;;;;1.13;0.90;;;;;;;;;;5054470;28;20033;-70
2023/05/03 14:42:15;;;;;;;3.55;1.17;;;;;;;;;;5053629;28;20482;-71
2023/05/03 14:44:41;;;;;;;3.80;0.85;;;;;;;;;;5053760;28;20401;-70